Time;durP1;ratioP1;P1;durP2;ratioP2;P2;SDS_P1;SDS_P2;PMS_P1;PMS_P2;Temp;Humidity;BMP_temperature;BMP_pressure;BME280_temperature;BME280_humidity;BME280_pressure;Samples;Min_cycle;Max_cycle;Signal;HPM_P1;HPM_P2
2023/09/17 00:00:36;;;;;;;22.42;18.02;;;;;;;-146.27;77.42;81159.00;5050803;28;20459;-67
2023/09/17 00:03:03;;;;;;;23.52;19.45;;;;;;;-146.27;76.96;81163.03;5051117;28;20025;-67
2023/09/17 00:05:28;;;;;;;20.85;17.65;;;;;;;-146.27;76.99;81195.16;5050647;28;20055;-67
2023/09/17 00:07:53;;;;;;;24.08;18.83;;;;;;;-146.27;77.32;81215.22;5049739;28;20177;-67
2023/09/17 00:10:19;;;;;;;22.52;18.40;;;;;;;-146.27;76.85;81275.47;5050920;28;20033;-67
2023/09/17 00:12:44;;;;;;;24.77;18.15;;;;;;;-146.27;76.63;81191.13;5050403;28;20078;-66
2023/09/17 00:15:10;;;;;;;21.02;17.73;;;;;;;-146.27;75.34;81219.25;5050444;28;20521;-66
2023/09/17 00:17:35;;;;;;;26.52;19.08;;;;;;;-146.27;77.30;81223.25;5050655;28;20048;-67
2023/09/17 00:20:01;;;;;;;20.52;18.25;;;;;;;-146.27;76.54;81219.25;5050741;28;20028;-68
2023/09/17 00:22:26;;;;;;;22.00;18.10;;;;;;;-146.27;76.05;81219.25;5050588;28;20029;-68
2023/09/17 00:24:51;;;;;;;22.10;17.80;;;;;;;-146.27;76.06;81241.34;5049057;28;20028;-68
2023/09/17 00:27:17;;;;;;;21.90;17.58;;;;;;;-146.27;75.91;81215.22;5049987;28;20021;-68
2023/09/17 00:29:42;;;;;;;21.75;17.48;;;;;;;-146.27;74.78;81215.22;5050454;28;20025;-69
2023/09/17 00:32:07;;;;;;;25.40;18.52;;;;;;;-146.27;75.45;81203.19;5050518;28;20104;-67
2023/09/17 00:34:33;;;;;;;20.23;17.50;;;;;;;-146.27;76.08;81233.31;5050337;28;20500;-68
2023/09/17 00:37:00;;;;;;;28.60;17.88;;;;;;;-146.27;76.11;81217.25;5048887;28;20036;-68
2023/09/17 00:39:26;;;;;;;23.52;17.30;;;;;;;-146.27;75.31;81201.19;5050862;28;20047;-68
2023/09/17 00:41:52;;;;;;;20.25;15.88;;;;;;;-146.27;75.51;81205.19;5050347;28;20033;-68
2023/09/17 00:44:17;;;;;;;19.20;17.20;;;;;;;-146.27;75.16;81243.34;5050063;28;20025;-67
2023/09/17 00:46:43;;;;;;;21.10;17.42;;;;;;;-146.27;74.99;81199.16;5050465;28;20028;-67
2023/09/17 00:49:13;;;;;;;24.80;17.80;;;;;;;-146.27;75.15;81227.28;5050305;28;20052;-68
2023/09/17 00:51:40;;;;;;;23.13;16.02;;;;;;;-146.27;74.41;81187.13;5049814;28;20108;-68
2023/09/17 00:54:07;;;;;;;23.85;16.88;;;;;;;-146.27;73.50;81259.41;5049944;28;20048;-68
2023/09/17 00:56:33;;;;;;;19.63;16.30;;;;;;;-146.27;73.73;81215.22;5050067;28;20136;-67
2023/09/17 00:58:59;;;;;;;22.95;15.95;;;;;;;-146.27;74.64;81239.34;5050384;28;20100;-67
2023/09/17 01:01:25;;;;;;;20.38;15.88;;;;;;;-146.27;73.74;81255.41;5049862;28;20473;-67
2023/09/17 01:03:50;;;;;;;19.45;16.02;;;;;;;-146.27;74.65;81231.31;5050005;28;20079;-68
2023/09/17 01:06:16;;;;;;;19.55;16.33;;;;;;;-146.27;74.11;81243.34;5048353;28;20474;-67
2023/09/17 01:08:42;;;;;;;19.23;16.52;;;;;;;-146.27;73.67;81249.38;5050119;28;20029;-67
2023/09/17 01:11:09;;;;;;;24.75;16.85;;;;;;;-146.27;73.56;81237.31;5049823;28;20075;-67
2023/09/17 01:13:40;;;;;;;21.40;16.10;;;;;;;-146.27;73.67;81271.47;5050187;28;20365;-69
2023/09/17 01:16:06;;;;;;;18.17;15.38;;;;;;;-146.27;73.82;81271.47;5048194;28;20128;-67
2023/09/17 01:18:32;;;;;;;17.38;15.02;;;;;;;-146.27;72.82;81253.38;5049984;28;20484;-68
2023/09/17 01:21:22;;;;;;;18.15;14.82;;;;;;;-146.27;73.31;81239.34;5049537;28;20099;-67
2023/09/17 01:24:04;;;;;;;17.08;14.02;;;;;;;-146.27;72.97;81217.25;5051443;28;20032;-68
2023/09/17 01:26:30;;;;;;;19.45;14.93;;;;;;;-146.27;73.06;81211.22;5054107;28;20031;-68
2023/09/17 01:28:56;;;;;;;16.63;14.50;;;;;;;-146.27;72.93;81231.31;5053761;28;20146;-67
2023/09/17 01:31:24;;;;;;;20.17;15.15;;;;;;;-146.27;73.42;81211.22;5053675;28;20047;-68
2023/09/17 01:33:51;;;;;;;16.02;13.57;;;;;;;-146.27;71.50;81223.25;5052698;28;20044;-67
2023/09/17 01:36:23;;;;;;;19.23;14.55;;;;;;;-146.27;72.29;81215.22;5053329;28;20052;-67
2023/09/17 01:38:54;;;;;;;15.52;13.85;;;;;;;-146.27;71.90;81235.31;5053575;28;20051;-67
2023/09/17 01:41:20;;;;;;;18.08;14.43;;;;;;;-146.27;71.61;81231.31;5053763;28;20029;-67
2023/09/17 01:43:46;;;;;;;21.20;15.10;;;;;;;-146.27;70.67;81247.38;5053220;28;20033;-67
2023/09/17 01:46:11;;;;;;;17.63;14.45;;;;;;;-146.27;70.73;81203.19;5053272;28;20060;-68
2023/09/17 01:48:42;;;;;;;17.77;14.55;;;;;;;-146.27;70.48;81231.31;5053297;28;20053;-68
2023/09/17 01:51:10;;;;;;;18.05;14.07;;;;;;;-146.27;71.78;81235.31;5053429;28;20107;-68
2023/09/17 01:53:36;;;;;;;15.68;14.02;;;;;;;-146.27;72.74;81279.50;5053722;28;20085;-68
2023/09/17 01:56:01;;;;;;;16.35;14.07;;;;;;;-146.27;70.67;81221.25;5053526;28;20634;-67
2023/09/17 01:58:27;;;;;;;19.35;15.02;;;;;;;-146.27;72.21;81245.34;5053127;28;20021;-68
2023/09/17 02:00:53;;;;;;;19.13;15.18;;;;;;;-146.27;71.84;81229.28;5052946;28;20056;-69
2023/09/17 02:03:19;;;;;;;19.92;14.80;;;;;;;-146.27;71.39;81223.25;5053382;28;20024;-67
2023/09/17 02:05:45;;;;;;;17.02;14.73;;;;;;;-146.27;72.13;81203.19;5052953;28;20028;-67
2023/09/17 02:08:10;;;;;;;19.58;14.85;;;;;;;-146.27;70.87;81233.31;5053546;28;20045;-67
2023/09/17 02:10:35;;;;;;;17.73;14.65;;;;;;;-146.27;70.76;81211.22;5051936;28;20025;-68
2023/09/17 02:13:00;;;;;;;18.60;15.23;;;;;;;-146.27;70.99;81197.16;5053091;28;20111;-67
2023/09/17 02:15:26;;;;;;;17.10;14.80;;;;;;;-146.27;71.14;81203.19;5052347;28;20037;-68
2023/09/17 02:17:52;;;;;;;17.75;14.75;;;;;;;-146.27;70.18;81215.22;5053038;28;20107;-68
2023/09/17 02:20:17;;;;;;;16.67;13.93;;;;;;;-146.27;70.93;81215.22;5052961;28;20496;-67
2023/09/17 02:22:43;;;;;;;19.60;14.38;;;;;;;-146.27;70.17;81243.34;5053060;28;20060;-69
2023/09/17 02:25:10;;;;;;;16.33;14.63;;;;;;;-146.27;70.13;81263.44;5052906;28;20024;-68
2023/09/17 02:27:35;;;;;;;18.33;14.77;;;;;;;-146.27;69.67;81207.19;5052903;28;20025;-68
2023/09/17 02:30:01;;;;;;;17.58;14.20;;;;;;;-146.27;69.08;81243.34;5052936;28;20017;-68
2023/09/17 02:32:26;;;;;;;17.98;14.82;;;;;;;-146.27;70.89;81241.34;5053264;28;20033;-68
2023/09/17 02:34:52;;;;;;;16.08;13.00;;;;;;;-146.27;69.36;81247.38;5052374;28;20456;-68
2023/09/17 02:37:17;;;;;;;18.48;14.82;;;;;;;-146.27;69.68;81267.44;5052957;28;20040;-68
2023/09/17 02:39:43;;;;;;;18.08;13.90;;;;;;;-146.27;69.18;81277.50;5052592;28;20033;-68
2023/09/17 02:42:09;;;;;;;15.85;14.02;;;;;;;-146.27;68.73;81239.34;5052310;28;20707;-68
2023/09/17 02:44:34;;;;;;;21.40;15.20;;;;;;;-146.27;69.65;81279.50;5052600;28;20039;-69
2023/09/17 02:46:59;;;;;;;15.30;13.10;;;;;;;-146.27;69.16;81295.56;5052176;28;20039;-69
2023/09/17 02:49:25;;;;;;;17.38;14.98;;;;;;;-146.27;69.82;81281.50;5052399;28;20051;-68
2023/09/17 02:51:50;;;;;;;19.15;14.60;;;;;;;-146.27;68.33;81239.34;5052261;28;20056;-68
2023/09/17 02:54:16;;;;;;;17.35;14.05;;;;;;;-146.27;68.13;81267.44;5052580;28;20483;-68
2023/09/17 02:56:42;;;;;;;17.60;12.90;;;;;;;-146.27;67.93;81199.16;5052727;28;20120;-68
2023/09/17 02:59:07;;;;;;;14.93;13.07;;;;;;;-146.27;69.96;81289.53;5052336;28;20104;-68
2023/09/17 03:01:33;;;;;;;18.33;13.35;;;;;;;-146.27;68.55;81253.38;5051910;28;20392;-68
2023/09/17 03:03:58;;;;;;;16.65;12.77;;;;;;;-146.27;68.13;81279.50;5052227;28;20021;-67
2023/09/17 03:06:23;;;;;;;17.50;14.25;;;;;;;-146.27;69.05;81267.44;5051841;28;20016;-68
2023/09/17 03:08:49;;;;;;;17.27;13.50;;;;;;;-146.27;67.75;81223.25;5052134;28;20074;-68
2023/09/17 03:11:17;;;;;;;15.65;12.93;;;;;;;-146.27;68.05;81253.38;5052279;28;20021;-67
2023/09/17 03:13:44;;;;;;;18.27;13.60;;;;;;;-146.27;67.93;81225.28;5052016;28;20025;-68
2023/09/17 03:16:12;;;;;;;14.75;12.85;;;;;;;-146.27;68.27;81291.53;5051925;28;20554;-69
2023/09/17 03:18:38;;;;;;;16.98;12.70;;;;;;;-146.27;68.30;81259.41;5051725;28;20025;-68
2023/09/17 03:21:06;;;;;;;15.70;13.18;;;;;;;-146.27;67.83;81251.38;5051698;28;20040;-67
2023/09/17 03:23:33;;;;;;;16.05;12.95;;;;;;;-146.27;68.36;81331.72;5052053;28;20095;-67
2023/09/17 03:26:00;;;;;;;15.68;12.73;;;;;;;-146.27;67.31;81261.44;5050391;28;20028;-69
2023/09/17 03:28:26;;;;;;;16.90;13.20;;;;;;;-146.27;67.82;81319.66;5051783;28;20032;-68
2023/09/17 03:30:52;;;;;;;17.35;13.32;;;;;;;-146.27;68.13;81283.50;5051532;28;20082;-68
2023/09/17 03:33:17;;;;;;;16.33;13.85;;;;;;;-146.27;67.35;81255.41;5051617;28;20124;-68
2023/09/17 03:35:43;;;;;;;19.52;13.52;;;;;;;-146.27;68.09;81279.50;5051319;28;20155;-69
2023/09/17 03:38:08;;;;;;;16.73;12.93;;;;;;;-146.27;67.61;81283.50;5051424;28;20513;-68
2023/09/17 03:40:34;;;;;;;17.15;13.43;;;;;;;-146.27;68.36;81253.38;5051641;28;20132;-68
2023/09/17 03:42:59;;;;;;;20.58;13.43;;;;;;;-146.27;67.78;81235.31;5051324;28;20104;-68
2023/09/17 03:45:25;;;;;;;20.52;14.32;;;;;;;-146.27;68.43;81275.47;5051377;28;20473;-68
2023/09/17 03:47:51;;;;;;;21.30;14.00;;;;;;;-146.27;68.63;81291.53;5050099;28;20024;-68
2023/09/17 03:50:16;;;;;;;19.45;14.77;;;;;;;-146.27;69.49;81307.63;5051184;28;20036;-68
2023/09/17 03:52:45;;;;;;;16.27;14.55;;;;;;;-146.27;69.41;81289.53;5050255;28;20112;-68
2023/09/17 03:55:11;;;;;;;19.85;14.60;;;;;;;-146.27;69.51;81235.31;5031486;28;20024;-67
2023/09/17 03:57:38;;;;;;;18.90;14.50;;;;;;;-146.27;69.40;81315.66;5048777;28;20100;-68
2023/09/17 04:00:07;;;;;;;18.35;14.68;;;;;;;-146.27;69.08;81277.50;5051230;28;20438;-68
2023/09/17 04:02:41;;;;;;;18.75;14.90;;;;;;;-146.27;70.26;81283.50;5050881;28;20029;-69
2023/09/17 04:05:10;;;;;;;19.45;14.57;;;;;;;-146.27;70.84;81315.66;5050775;28;20370;-69
2023/09/17 04:07:36;;;;;;;17.10;13.88;;;;;;;-146.27;70.21;81307.63;5051102;28;20422;-68
2023/09/17 04:10:02;;;;;;;16.30;13.35;;;;;;;-146.27;68.96;81283.50;5050784;28;20052;-68
2023/09/17 04:12:28;;;;;;;19.55;14.18;;;;;;;-146.27;69.60;81283.50;5050877;28;20429;-68
2023/09/17 04:14:55;;;;;;;19.77;15.50;;;;;;;-146.27;69.95;81303.59;5050663;28;20048;-68
2023/09/17 04:17:20;;;;;;;19.55;15.45;;;;;;;-146.27;69.29;81305.59;5049241;28;20067;-68
2023/09/17 04:19:45;;;;;;;18.67;15.18;;;;;;;-146.27;69.46;81285.53;5050641;28;20048;-68
2023/09/17 04:22:11;;;;;;;19.23;14.93;;;;;;;-146.27;70.29;81331.72;5050511;28;20031;-69
2023/09/17 04:24:38;;;;;;;20.98;14.68;;;;;;;-146.27;69.54;81287.53;5050758;28;20025;-68
2023/09/17 04:27:04;;;;;;;23.30;15.05;;;;;;;-146.27;70.00;81281.50;5050438;28;20021;-66
2023/09/17 04:29:29;;;;;;;17.77;14.82;;;;;;;-146.27;69.94;81293.56;5050583;28;20412;-66
2023/09/17 04:31:54;;;;;;;19.42;15.15;;;;;;;-146.27;69.99;81285.53;5050217;28;20037;-67
2023/09/17 04:34:20;;;;;;;19.05;14.98;;;;;;;-146.27;70.33;81315.66;5050138;28;20021;-69
2023/09/17 04:36:46;;;;;;;18.77;14.70;;;;;;;-146.27;70.61;81281.50;5050617;28;20029;-67
2023/09/17 04:39:14;;;;;;;20.77;15.07;;;;;;;-146.27;70.21;81303.59;5050680;28;20108;-67
2023/09/17 04:41:40;;;;;;;20.33;14.85;;;;;;;-146.27;71.35;81281.50;5050329;28;20029;-67
2023/09/17 04:44:10;;;;;;;17.48;14.48;;;;;;;-146.27;70.75;81267.44;5050545;28;20546;-67
2023/09/17 04:46:48;;;;;;;16.33;14.43;;;;;;;-146.27;70.81;81301.59;5050615;28;20029;-68
2023/09/17 04:49:13;;;;;;;18.30;14.98;;;;;;;-146.27;70.92;81293.56;5050347;28;20033;-68
2023/09/17 04:51:39;;;;;;;17.13;14.32;;;;;;;-146.27;71.58;81299.59;5050355;28;20108;-68
2023/09/17 04:54:05;;;;;;;20.52;14.48;;;;;;;-146.27;71.09;81313.63;5050631;28;20073;-68
2023/09/17 04:56:31;;;;;;;20.45;15.18;;;;;;;-146.27;71.91;81335.72;5050343;28;20025;-68
2023/09/17 04:58:58;;;;;;;18.90;14.18;;;;;;;-146.27;71.67;81315.66;5050132;28;20044;-67
2023/09/17 05:01:23;;;;;;;19.52;14.30;;;;;;;-146.27;72.28;81339.75;5049535;28;20401;-67
2023/09/17 05:03:48;;;;;;;18.80;14.82;;;;;;;-146.27;71.67;81319.66;5050056;28;20039;-67
2023/09/17 05:06:14;;;;;;;21.15;14.48;;;;;;;-146.27;72.10;81323.69;5049691;28;20025;-69
2023/09/17 05:08:41;;;;;;;20.60;14.38;;;;;;;-146.27;71.72;81353.81;5050294;28;20033;-68
2023/09/17 05:11:06;;;;;;;18.80;13.85;;;;;;;-146.27;72.05;81295.56;5050175;28;20029;-68
2023/09/17 05:13:31;;;;;;;19.73;15.57;;;;;;;-146.27;72.17;81353.81;5049987;28;20499;-68
2023/09/17 05:15:57;;;;;;;17.63;14.35;;;;;;;-146.27;71.80;81291.53;5049694;28;20041;-68
2023/09/17 05:18:22;;;;;;;21.48;14.73;;;;;;;-146.27;72.35;81351.78;5049888;28;20029;-68
2023/09/17 05:20:48;;;;;;;19.08;14.88;;;;;;;-146.27;72.72;81367.88;5048651;28;20037;-69
2023/09/17 05:23:14;;;;;;;19.95;15.40;;;;;;;-146.27;72.93;81359.81;5049730;28;20481;-68
2023/09/17 05:25:39;;;;;;;22.05;15.52;;;;;;;-146.27;72.67;81355.81;5049667;28;20036;-68
2023/09/17 05:28:08;;;;;;;20.15;14.77;;;;;;;-146.27;73.08;81311.63;5050023;28;20052;-67
2023/09/17 05:30:34;;;;;;;19.50;16.08;;;;;;;-146.27;73.12;81309.63;5050364;28;20030;-69
2023/09/17 05:33:00;;;;;;;18.27;15.20;;;;;;;-146.27;73.31;81331.72;5050430;28;20033;-67
2023/09/17 05:35:25;;;;;;;16.65;14.80;;;;;;;-146.27;72.22;81355.81;5049362;28;20698;-67
2023/09/17 05:37:51;;;;;;;17.70;14.95;;;;;;;-146.27;73.12;81331.72;5049340;28;20055;-67
2023/09/17 05:40:16;;;;;;;18.65;15.23;;;;;;;-146.27;72.23;81357.81;5049933;28;20082;-67
2023/09/17 05:42:41;;;;;;;20.02;15.27;;;;;;;-146.27;72.06;81291.53;5049363;28;20091;-68
2023/09/17 05:45:08;;;;;;;18.85;14.93;;;;;;;-146.27;72.20;81317.66;5049669;28;20188;-69
2023/09/17 05:47:33;;;;;;;20.55;15.57;;;;;;;-146.27;72.00;81311.63;5049321;28;20067;-68
2023/09/17 05:49:59;;;;;;;22.42;15.50;;;;;;;-146.27;72.09;81355.81;5049245;28;20056;-69
2023/09/17 05:52:25;;;;;;;18.63;15.00;;;;;;;-146.27;72.01;81281.50;5049167;28;20032;-68
2023/09/17 05:54:50;;;;;;;19.10;15.13;;;;;;;-146.27;71.75;81329.72;5048995;28;20024;-69
2023/09/17 05:57:16;;;;;;;23.13;16.38;;;;;;;-146.27;71.55;81303.59;5049398;28;20029;-69
2023/09/17 05:59:41;;;;;;;20.60;15.25;;;;;;;-146.27;72.25;81313.63;5048357;28;20035;-68
2023/09/17 06:02:09;;;;;;;19.42;15.70;;;;;;;-146.27;71.58;81301.59;5049009;28;20033;-69
2023/09/17 06:04:34;;;;;;;21.13;15.45;;;;;;;-146.27;71.26;81311.63;5049156;28;20021;-69
2023/09/17 06:06:59;;;;;;;18.98;15.35;;;;;;;-146.27;71.27;81303.59;5049399;28;20040;-69
2023/09/17 06:09:25;;;;;;;21.98;14.93;;;;;;;-146.27;71.22;81279.50;5049173;28;20028;-69
2023/09/17 06:11:51;;;;;;;18.10;15.20;;;;;;;-146.27;71.80;81267.44;5052898;28;20037;-67
2023/09/17 06:14:16;;;;;;;20.13;15.52;;;;;;;-146.27;71.64;81311.63;5052538;28;20323;-69
2023/09/17 06:16:42;;;;;;;17.40;14.30;;;;;;;-146.27;71.03;81255.41;5052782;28;20477;-69
2023/09/17 06:19:07;;;;;;;21.08;15.73;;;;;;;-146.27;70.45;81247.38;5052422;28;20040;-68
2023/09/17 06:21:32;;;;;;;19.50;14.45;;;;;;;-146.27;70.67;81239.34;5052626;28;20704;-68
2023/09/17 06:23:58;;;;;;;17.33;14.40;;;;;;;-146.27;70.89;81291.53;5052574;28;20469;-69
2023/09/17 06:26:23;;;;;;;18.48;14.13;;;;;;;-146.27;70.65;81249.38;5052802;28;20055;-69
2023/09/17 06:28:49;;;;;;;17.65;14.38;;;;;;;-146.27;70.59;81251.38;5052317;28;20507;-67
2023/09/17 06:31:14;;;;;;;17.73;14.32;;;;;;;-146.27;70.65;81249.38;5052810;28;20044;-68
2023/09/17 06:33:40;;;;;;;17.15;14.05;;;;;;;-146.27;70.35;81285.53;5052386;28;20021;-67
2023/09/17 06:36:05;;;;;;;17.70;14.65;;;;;;;-146.27;71.55;81261.44;5052550;28;20446;-69
2023/09/17 06:38:30;;;;;;;20.88;14.63;;;;;;;-146.27;70.82;81267.44;5052393;28;20507;-69
2023/09/17 06:40:56;;;;;;;18.40;13.68;;;;;;;-146.27;71.40;81275.47;5052633;28;20112;-68
2023/09/17 06:43:22;;;;;;;22.38;14.32;;;;;;;-146.27;71.93;81319.66;5052595;28;20469;-67
2023/09/17 06:45:47;;;;;;;17.85;13.50;;;;;;;-146.27;71.18;81303.59;5052383;28;20025;-68
2023/09/17 06:48:13;;;;;;;17.20;14.55;;;;;;;-146.27;71.28;81293.56;5051708;28;20024;-68
2023/09/17 06:50:38;;;;;;;19.35;13.93;;;;;;;-146.27;70.82;81339.75;5051759;28;20379;-69
2023/09/17 06:53:04;;;;;;;17.67;13.07;;;;;;;-146.27;71.14;81331.72;5052078;28;20083;-68
2023/09/17 06:55:29;;;;;;;18.55;14.00;;;;;;;-146.27;71.61;81347.78;5048982;28;20037;-68
2023/09/17 06:57:55;;;;;;;18.33;13.68;;;;;;;-146.27;71.02;81351.78;5050618;28;20036;-69
2023/09/17 07:00:20;;;;;;;16.73;13.80;;;;;;;-146.27;71.97;81353.81;5051649;28;20029;-69
2023/09/17 07:02:46;;;;;;;21.50;14.45;;;;;;;-146.27;73.73;81438.16;5050352;28;20088;-67
2023/09/17 07:05:11;;;;;;;17.90;14.35;;;;;;;-146.27;75.12;81484.34;5050976;28;20017;-68
2023/09/17 07:07:37;;;;;;;20.20;15.77;;;;;;;-146.27;75.75;81452.22;5051797;28;20029;-71
2023/09/17 07:10:04;;;;;;;19.60;16.15;;;;;;;-146.27;77.19;81534.56;5051807;28;20021;-68
2023/09/17 07:12:29;;;;;;;24.23;17.42;;;;;;;-146.27;78.15;81530.53;5051303;28;20047;-68
2023/09/17 07:14:55;;;;;;;21.75;17.13;;;;;;;-146.27;78.65;81572.72;5051579;28;20029;-69
2023/09/17 07:17:20;;;;;;;27.80;19.10;;;;;;;-146.27;79.42;81582.75;5051788;28;20635;-68
2023/09/17 07:19:46;;;;;;;27.63;19.85;;;;;;;-146.27;79.81;81548.59;5050917;28;20024;-69
2023/09/17 07:22:14;;;;;;;26.75;20.02;;;;;;;-146.27;80.88;81620.91;5050294;28;20063;-69
2023/09/17 07:24:41;;;;;;;25.50;20.42;;;;;;;-146.27;80.58;81576.72;5051593;28;20082;-68
2023/09/17 07:27:06;;;;;;;24.75;19.20;;;;;;;-146.27;80.70;81616.91;5051699;28;20040;-69
2023/09/17 07:29:32;;;;;;;27.30;19.20;;;;;;;-146.27;81.51;81596.81;5051886;28;20025;-69
2023/09/17 07:31:57;;;;;;;28.35;20.55;;;;;;;-146.27;81.65;81616.91;5051815;28;20033;-68
2023/09/17 07:34:24;;;;;;;26.40;20.65;;;;;;;-146.27;82.11;81636.97;5050922;28;20512;-70
2023/09/17 07:36:50;;;;;;;30.67;21.23;;;;;;;-146.27;82.57;81634.97;5051561;28;20500;-69
2023/09/17 07:39:15;;;;;;;30.60;22.95;;;;;;;-146.27;82.37;81634.97;5051528;28;20021;-68
2023/09/17 07:41:41;;;;;;;28.65;20.45;;;;;;;-146.27;82.63;81590.78;5051596;28;20037;-67
2023/09/17 07:44:07;;;;;;;28.02;20.88;;;;;;;-146.27;82.67;81665.09;5050584;28;20519;-67
2023/09/17 07:46:32;;;;;;;27.75;21.00;;;;;;;-146.27;83.39;81632.97;5051107;28;20029;-67
2023/09/17 07:49:00;;;;;;;31.70;22.00;;;;;;;-146.27;83.28;81630.97;5051243;28;20036;-67
2023/09/17 07:51:25;;;;;;;30.15;21.70;;;;;;;-146.27;83.55;81626.94;5050414;28;20025;-68
2023/09/17 07:53:51;;;;;;;30.40;20.80;;;;;;;-146.27;84.09;81628.94;5050974;28;20043;-67
2023/09/17 07:56:16;;;;;;;31.80;21.60;;;;;;;-146.27;84.01;81665.09;5044247;28;20021;-67
2023/09/17 07:58:41;;;;;;;31.85;22.50;;;;;;;-146.27;84.91;81661.09;5051027;28;20037;-67
2023/09/17 08:01:07;;;;;;;36.17;23.95;;;;;;;-146.27;85.29;81677.16;5050548;28;20086;-67
2023/09/17 08:03:32;;;;;;;33.83;23.58;;;;;;;-146.27;84.67;81616.91;5050788;28;20416;-67
2023/09/17 08:05:58;;;;;;;30.63;22.92;;;;;;;-146.27;85.13;81628.94;5050143;28;20055;-66
2023/09/17 08:08:24;;;;;;;31.13;20.05;;;;;;;-146.27;84.31;81636.97;5050601;28;20029;-68
2023/09/17 08:10:50;;;;;;;27.35;20.40;;;;;;;-146.27;84.47;81622.91;5050980;28;20392;-67
2023/09/17 08:13:16;;;;;;;28.98;21.23;;;;;;;-146.27;84.45;81634.97;5051465;28;20056;-65
2023/09/17 08:15:41;;;;;;;31.88;19.95;;;;;;;-146.27;85.02;81667.09;5050661;28;20045;-66
2023/09/17 08:18:07;;;;;;;27.92;20.73;;;;;;;-146.27;85.59;81636.97;5050619;28;20031;-66
2023/09/17 08:20:32;;;;;;;34.17;21.85;;;;;;;-146.27;85.60;81622.91;5049860;28;20021;-67
2023/09/17 08:22:58;;;;;;;28.85;20.35;;;;;;;-146.27;85.18;81641.00;5050652;28;20036;-67
2023/09/17 08:25:24;;;;;;;34.20;22.25;;;;;;;-146.27;85.78;81624.94;5050829;28;20033;-67
2023/09/17 08:27:51;;;;;;;33.70;21.00;;;;;;;-146.27;85.00;81649.03;5051013;28;20575;-67
2023/09/17 08:30:16;;;;;;;30.15;20.48;;;;;;;-146.27;85.16;81620.91;5050293;28;20024;-68
2023/09/17 08:32:43;;;;;;;30.38;20.92;;;;;;;-146.27;85.19;81659.06;5049774;28;20059;-68
2023/09/17 08:35:09;;;;;;;28.17;20.92;;;;;;;-146.27;84.88;81659.06;5049420;28;20063;-68
2023/09/17 08:37:38;;;;;;;30.83;19.95;;;;;;;-146.27;85.16;81689.19;5050468;28;20028;-68
2023/09/17 08:40:10;;;;;;;29.70;20.35;;;;;;;-146.27;85.18;81707.28;5050018;28;20028;-68
2023/09/17 08:42:38;;;;;;;31.90;20.50;;;;;;;-146.27;85.03;81667.09;5050165;28;20039;-68
2023/09/17 08:45:05;;;;;;;25.67;17.98;;;;;;;-146.27;84.91;81687.19;5050350;28;20029;-67
2023/09/17 08:47:31;;;;;;;31.05;20.85;;;;;;;-146.27;85.54;81685.19;5050449;28;20435;-70
2023/09/17 08:49:56;;;;;;;32.33;21.38;;;;;;;-146.27;86.02;81739.41;5049722;28;20025;-68
2023/09/17 08:52:22;;;;;;;32.92;22.45;;;;;;;-146.27;86.15;81753.47;5050072;28;20087;-67
2023/09/17 08:54:49;;;;;;;35.20;22.33;;;;;;;-146.27;85.62;81713.31;5050095;28;20592;-68
2023/09/17 08:57:18;;;;;;;34.30;21.98;;;;;;;-146.27;85.63;81721.34;5049625;28;20029;-68
2023/09/17 08:59:48;;;;;;;32.45;20.63;;;;;;;-146.27;85.10;81634.97;5049534;28;20036;-68
2023/09/17 09:02:31;;;;;;;29.80;22.23;;;;;;;-146.27;86.54;81701.25;5049786;28;20025;-68
2023/09/17 09:04:57;;;;;;;33.53;22.73;;;;;;;-146.27;86.24;81673.13;5049769;28;20021;-69
2023/09/17 09:07:23;;;;;;;35.28;23.10;;;;;;;-146.27;86.43;81669.13;5050312;28;20083;-68
2023/09/17 09:09:51;;;;;;;40.20;24.77;;;;;;;-146.27;86.83;81630.97;5049217;28;20021;-68
2023/09/17 09:12:17;;;;;;;34.40;23.27;;;;;;;-146.27;86.15;81618.91;5049214;28;20051;-68
2023/09/17 09:14:46;;;;;;;37.08;23.23;;;;;;;-146.27;86.08;81604.84;5049543;28;20037;-68
2023/09/17 09:17:13;;;;;;;31.70;22.27;;;;;;;-146.27;86.31;81590.78;5049944;28;20036;-68
2023/09/17 09:19:38;;;;;;;38.50;23.40;;;;;;;-146.27;86.70;81594.81;5056057;28;20029;-68
2023/09/17 09:22:04;;;;;;;34.15;22.23;;;;;;;-146.27;86.19;81592.78;5049583;28;20029;-69
2023/09/17 09:24:49;;;;;;;36.58;21.85;;;;;;;-146.27;85.97;81604.84;5047537;28;20027;-67
2023/09/17 09:27:15;;;;;;;33.47;21.40;;;;;;;-146.27;85.62;81568.69;5048605;28;20029;-67
2023/09/17 09:29:43;;;;;;;31.45;21.45;;;;;;;-146.27;85.63;81548.59;5047708;28;20079;-68
2023/09/17 09:32:10;;;;;;;32.63;22.15;;;;;;;-146.27;86.13;81494.38;5049170;28;20017;-66
2023/09/17 09:34:37;;;;;;;32.25;21.40;;;;;;;-146.27;86.20;81520.50;5049500;28;20056;-67
2023/09/17 09:37:08;;;;;;;33.83;20.98;;;;;;;-146.27;85.62;81516.47;5049339;28;20112;-68
2023/09/17 09:39:37;;;;;;;29.00;20.20;;;;;;;-146.27;85.80;81540.56;5048797;28;20064;-69
2023/09/17 09:42:07;;;;;;;26.77;19.20;;;;;;;-146.27;85.28;81480.31;5048402;28;20400;-69
2023/09/17 09:44:34;;;;;;;31.55;19.52;;;;;;;-146.27;85.56;81552.63;5048694;28;20043;-69
2023/09/17 09:47:00;;;;;;;28.13;19.20;;;;;;;-146.27;85.41;81450.19;5053059;28;20017;-69
2023/09/17 09:49:26;;;;;;;29.83;20.20;;;;;;;-146.27;86.01;81478.31;5051718;28;20115;-71
2023/09/17 09:51:52;;;;;;;24.73;19.00;;;;;;;-146.27;85.41;81500.41;5053066;28;20025;-69
2023/09/17 09:54:18;;;;;;;24.95;18.85;;;;;;;-146.27;85.99;81454.22;5052986;28;20095;-68
2023/09/17 09:56:47;;;;;;;25.52;18.15;;;;;;;-146.27;85.55;81430.13;5052595;28;20067;-68
2023/09/17 09:59:14;;;;;;;24.85;17.70;;;;;;;-146.27;85.72;81408.03;5053469;28;20096;-68
2023/09/17 10:01:40;;;;;;;23.52;16.45;;;;;;;-146.27;84.77;81387.94;5052925;28;20029;-69
2023/09/17 10:04:08;;;;;;;18.73;15.10;;;;;;;-146.27;84.67;81383.94;5053060;28;20084;-69
2023/09/17 10:06:35;;;;;;;23.10;14.95;;;;;;;-146.27;84.72;81387.94;5053127;28;20037;-69
2023/09/17 10:09:02;;;;;;;22.27;15.25;;;;;;;-146.27;84.64;81408.03;5052601;28;20048;-68
2023/09/17 10:11:30;;;;;;;20.45;14.77;;;;;;;-146.27;84.76;81351.78;5052672;28;20476;-69
2023/09/17 10:14:02;;;;;;;17.45;14.15;;;;;;;-146.27;83.91;81367.88;5052923;28;20036;-69
2023/09/17 10:16:29;;;;;;;16.02;13.45;;;;;;;-146.27;83.17;81379.91;5052594;28;20052;-69
2023/09/17 10:18:56;;;;;;;19.33;13.52;;;;;;;-146.27;82.95;81353.81;5052360;28;20050;-69
2023/09/17 10:21:25;;;;;;;17.67;13.23;;;;;;;-146.27;82.88;81305.59;5052391;28;20123;-69
2023/09/17 10:23:53;;;;;;;17.52;13.23;;;;;;;-146.27;82.47;81436.16;5040955;28;20052;-67
2023/09/17 10:26:22;;;;;;;17.45;12.73;;;;;;;-146.27;82.60;81355.81;5045304;28;20158;-67
2023/09/17 10:28:48;;;;;;;19.75;14.13;;;;;;;-146.27;81.97;81335.72;5052457;28;20067;-69
2023/09/17 10:31:15;;;;;;;17.98;12.80;;;;;;;-146.27;81.90;81341.75;5051906;28;20021;-69
2023/09/17 10:33:44;;;;;;;17.20;12.80;;;;;;;-146.27;81.73;81365.84;5045192;28;20040;-71
2023/09/17 10:36:11;;;;;;;19.15;13.98;;;;;;;-146.27;81.68;81365.84;5051599;28;20028;-69
2023/09/17 10:38:38;;;;;;;18.98;12.98;;;;;;;-146.27;81.45;81375.91;5051665;28;20104;-69
2023/09/17 10:41:05;;;;;;;18.85;13.05;;;;;;;-146.27;81.46;81408.03;5042427;28;20064;-69
2023/09/17 10:43:34;;;;;;;23.20;13.80;;;;;;;-146.27;81.87;81432.13;5047659;28;20032;-69
2023/09/17 10:46:01;;;;;;;20.60;13.88;;;;;;;-146.27;81.05;81375.91;5048514;28;20056;-69
2023/09/17 10:48:28;;;;;;;21.65;14.13;;;;;;;-146.27;81.11;81351.78;5035310;28;20059;-71
2023/09/17 10:50:54;;;;;;;26.05;14.88;;;;;;;-146.27;81.22;81436.16;5044408;28;20043;-70
2023/09/17 10:53:20;;;;;;;21.58;14.48;;;;;;;-146.27;82.28;81436.16;5046967;28;20111;-71
2023/09/17 10:56:08;;;;;;;23.63;15.60;;;;;;;-146.27;82.00;81343.75;5046745;28;20565;-69
2023/09/17 10:58:44;;;;;;;24.05;15.10;;;;;;;-146.27;81.54;81315.66;5035568;28;20029;-71